sensor_id;sensor_type;location;lat;lon;timestamp;P1;durP1;ratioP1;P2;durP2;ratioP2
3274;SDS011;1649;53.672;10.064;2023-09-08T00:00:40;14.67;;;10.30;;
3274;SDS011;1649;53.672;10.064;2023-09-08T00:03:06;13.57;;;9.60;;
3274;SDS011;1649;53.672;10.064;2023-09-08T00:05:31;13.73;;;9.90;;
3274;SDS011;1649;53.672;10.064;2023-09-08T00:07:57;12.97;;;9.73;;
3274;SDS011;1649;53.672;10.064;2023-09-08T00:10:22;14.17;;;10.07;;
3274;SDS011;1649;53.672;10.064;2023-09-08T00:12:48;12.10;;;8.90;;
3274;SDS011;1649;53.672;10.064;2023-09-08T00:15:13;11.83;;;9.00;;
3274;SDS011;1649;53.672;10.064;2023-09-08T00:17:39;12.83;;;9.70;;
3274;SDS011;1649;53.672;10.064;2023-09-08T00:20:05;16.90;;;10.80;;
3274;SDS011;1649;53.672;10.064;2023-09-08T00:22:34;14.80;;;10.50;;
3274;SDS011;1649;53.672;10.064;2023-09-08T00:25:01;12.20;;;9.37;;
3274;SDS011;1649;53.672;10.064;2023-09-08T00:27:26;12.50;;;9.47;;
3274;SDS011;1649;53.672;10.064;2023-09-08T00:29:52;13.40;;;10.17;;
3274;SDS011;1649;53.672;10.064;2023-09-08T00:32:17;11.90;;;8.77;;
3274;SDS011;1649;53.672;10.064;2023-09-08T00:34:43;12.10;;;8.97;;
3274;SDS011;1649;53.672;10.064;2023-09-08T00:37:08;11.63;;;9.50;;
3274;SDS011;1649;53.672;10.064;2023-09-08T00:39:35;11.37;;;8.80;;
3274;SDS011;1649;53.672;10.064;2023-09-08T00:42:01;14.37;;;9.60;;
3274;SDS011;1649;53.672;10.064;2023-09-08T00:44:26;11.80;;;9.50;;
3274;SDS011;1649;53.672;10.064;2023-09-08T00:46:52;13.67;;;9.07;;
3274;SDS011;1649;53.672;10.064;2023-09-08T00:49:17;13.50;;;8.63;;
3274;SDS011;1649;53.672;10.064;2023-09-08T00:51:43;12.13;;;8.50;;
3274;SDS011;1649;53.672;10.064;2023-09-08T00:54:09;11.87;;;9.50;;
3274;SDS011;1649;53.672;10.064;2023-09-08T00:56:35;14.70;;;10.30;;
3274;SDS011;1649;53.672;10.064;2023-09-08T00:59:02;13.33;;;9.20;;
3274;SDS011;1649;53.672;10.064;2023-09-08T01:01:28;12.83;;;9.90;;
3274;SDS011;1649;53.672;10.064;2023-09-08T01:03:55;12.40;;;8.83;;
3274;SDS011;1649;53.672;10.064;2023-09-08T01:06:21;12.20;;;9.33;;
3274;SDS011;1649;53.672;10.064;2023-09-08T01:08:47;13.00;;;9.57;;
3274;SDS011;1649;53.672;10.064;2023-09-08T01:11:13;13.20;;;9.90;;
3274;SDS011;1649;53.672;10.064;2023-09-08T01:13:38;14.63;;;9.27;;
3274;SDS011;1649;53.672;10.064;2023-09-08T01:16:04;11.73;;;9.13;;
3274;SDS011;1649;53.672;10.064;2023-09-08T01:18:29;13.77;;;9.90;;
3274;SDS011;1649;53.672;10.064;2023-09-08T01:21:17;11.40;;;9.00;;
3274;SDS011;1649;53.672;10.064;2023-09-08T01:27:29;12.60;;;9.23;;
3274;SDS011;1649;53.672;10.064;2023-09-08T01:29:59;12.23;;;9.40;;
3274;SDS011;1649;53.672;10.064;2023-09-08T01:32:26;12.10;;;8.97;;
3274;SDS011;1649;53.672;10.064;2023-09-08T01:34:54;10.60;;;8.60;;
3274;SDS011;1649;53.672;10.064;2023-09-08T01:37:24;13.63;;;9.23;;
3274;SDS011;1649;53.672;10.064;2023-09-08T01:39:49;12.67;;;8.80;;
3274;SDS011;1649;53.672;10.064;2023-09-08T01:42:15;11.90;;;9.10;;
3274;SDS011;1649;53.672;10.064;2023-09-08T01:44:40;10.70;;;8.63;;
3274;SDS011;1649;53.672;10.064;2023-09-08T01:47:06;12.77;;;8.67;;
3274;SDS011;1649;53.672;10.064;2023-09-08T01:49:31;11.67;;;9.03;;
3274;SDS011;1649;53.672;10.064;2023-09-08T01:51:57;11.73;;;9.17;;
3274;SDS011;1649;53.672;10.064;2023-09-08T01:54:22;13.00;;;9.60;;
3274;SDS011;1649;53.672;10.064;2023-09-08T01:56:48;11.77;;;9.23;;
3274;SDS011;1649;53.672;10.064;2023-09-08T01:59:13;10.73;;;8.43;;
3274;SDS011;1649;53.672;10.064;2023-09-08T02:01:39;11.63;;;9.23;;
3274;SDS011;1649;53.672;10.064;2023-09-08T02:04:05;12.60;;;9.10;;
3274;SDS011;1649;53.672;10.064;2023-09-08T02:06:30;12.17;;;9.60;;
3274;SDS011;1649;53.672;10.064;2023-09-08T02:08:56;12.37;;;9.50;;
3274;SDS011;1649;53.672;10.064;2023-09-08T02:11:21;11.53;;;9.83;;
3274;SDS011;1649;53.672;10.064;2023-09-08T02:13:47;12.40;;;9.03;;
3274;SDS011;1649;53.672;10.064;2023-09-08T02:16:15;12.90;;;9.60;;
3274;SDS011;1649;53.672;10.064;2023-09-08T02:18:44;14.87;;;10.20;;
3274;SDS011;1649;53.672;10.064;2023-09-08T02:21:11;11.87;;;9.30;;
3274;SDS011;1649;53.672;10.064;2023-09-08T02:23:36;12.90;;;9.60;;
3274;SDS011;1649;53.672;10.064;2023-09-08T02:26:02;13.43;;;9.57;;
3274;SDS011;1649;53.672;10.064;2023-09-08T02:28:28;12.60;;;9.60;;
3274;SDS011;1649;53.672;10.064;2023-09-08T02:30:53;13.40;;;10.50;;
3274;SDS011;1649;53.672;10.064;2023-09-08T02:33:19;12.90;;;9.77;;
3274;SDS011;1649;53.672;10.064;2023-09-08T02:35:45;13.30;;;9.80;;
3274;SDS011;1649;53.672;10.064;2023-09-08T02:38:10;13.27;;;10.23;;
3274;SDS011;1649;53.672;10.064;2023-09-08T02:40:36;14.33;;;10.07;;
3274;SDS011;1649;53.672;10.064;2023-09-08T02:43:01;12.03;;;9.67;;
3274;SDS011;1649;53.672;10.064;2023-09-08T02:45:28;14.50;;;10.17;;
3274;SDS011;1649;53.672;10.064;2023-09-08T02:47:53;13.30;;;9.50;;
3274;SDS011;1649;53.672;10.064;2023-09-08T02:50:19;15.90;;;9.23;;
3274;SDS011;1649;53.672;10.064;2023-09-08T02:52:45;13.20;;;10.20;;
3274;SDS011;1649;53.672;10.064;2023-09-08T02:55:11;12.73;;;9.80;;
3274;SDS011;1649;53.672;10.064;2023-09-08T02:57:38;11.03;;;8.93;;
3274;SDS011;1649;53.672;10.064;2023-09-08T03:00:04;11.80;;;8.73;;
3274;SDS011;1649;53.672;10.064;2023-09-08T03:02:31;14.03;;;9.67;;
3274;SDS011;1649;53.672;10.064;2023-09-08T03:04:57;12.10;;;9.47;;
3274;SDS011;1649;53.672;10.064;2023-09-08T03:07:22;11.93;;;8.77;;
3274;SDS011;1649;53.672;10.064;2023-09-08T03:09:48;10.40;;;8.43;;
3274;SDS011;1649;53.672;10.064;2023-09-08T03:12:14;11.47;;;8.30;;
3274;SDS011;1649;53.672;10.064;2023-09-08T03:14:39;12.70;;;9.13;;
3274;SDS011;1649;53.672;10.064;2023-09-08T03:17:05;10.33;;;8.03;;
3274;SDS011;1649;53.672;10.064;2023-09-08T03:19:30;11.10;;;8.70;;
3274;SDS011;1649;53.672;10.064;2023-09-08T03:21:56;11.00;;;8.07;;
3274;SDS011;1649;53.672;10.064;2023-09-08T03:24:21;12.20;;;8.27;;
3274;SDS011;1649;53.672;10.064;2023-09-08T03:26:47;10.63;;;7.93;;
3274;SDS011;1649;53.672;10.064;2023-09-08T03:29:12;12.23;;;8.37;;
3274;SDS011;1649;53.672;10.064;2023-09-08T03:31:38;10.33;;;8.10;;
3274;SDS011;1649;53.672;10.064;2023-09-08T03:34:04;10.17;;;8.20;;
3274;SDS011;1649;53.672;10.064;2023-09-08T03:36:29;10.27;;;8.20;;
3274;SDS011;1649;53.672;10.064;2023-09-08T03:38:55;10.37;;;8.13;;
3274;SDS011;1649;53.672;10.064;2023-09-08T03:41:23;11.40;;;8.23;;
3274;SDS011;1649;53.672;10.064;2023-09-08T03:43:48;11.33;;;8.10;;
3274;SDS011;1649;53.672;10.064;2023-09-08T03:46:14;10.10;;;7.63;;
3274;SDS011;1649;53.672;10.064;2023-09-08T03:48:39;12.03;;;8.53;;
3274;SDS011;1649;53.672;10.064;2023-09-08T03:51:05;10.20;;;7.60;;
3274;SDS011;1649;53.672;10.064;2023-09-08T03:53:30;11.83;;;9.03;;
3274;SDS011;1649;53.672;10.064;2023-09-08T03:55:56;10.50;;;7.83;;
3274;SDS011;1649;53.672;10.064;2023-09-08T03:58:21;10.93;;;8.33;;
3274;SDS011;1649;53.672;10.064;2023-09-08T04:00:47;10.10;;;7.80;;
3274;SDS011;1649;53.672;10.064;2023-09-08T04:03:12;11.23;;;7.87;;
3274;SDS011;1649;53.672;10.064;2023-09-08T04:05:38;11.07;;;8.60;;
3274;SDS011;1649;53.672;10.064;2023-09-08T04:08:04;10.37;;;8.10;;
3274;SDS011;1649;53.672;10.064;2023-09-08T04:10:30;11.17;;;8.80;;
3274;SDS011;1649;53.672;10.064;2023-09-08T04:12:55;11.47;;;8.03;;
3274;SDS011;1649;53.672;10.064;2023-09-08T04:15:21;13.17;;;9.60;;
3274;SDS011;1649;53.672;10.064;2023-09-08T04:17:46;11.13;;;8.27;;
3274;SDS011;1649;53.672;10.064;2023-09-08T04:20:12;12.80;;;8.87;;
3274;SDS011;1649;53.672;10.064;2023-09-08T04:22:39;11.83;;;8.90;;
3274;SDS011;1649;53.672;10.064;2023-09-08T04:25:05;13.07;;;9.13;;
3274;SDS011;1649;53.672;10.064;2023-09-08T04:27:31;11.67;;;9.03;;
3274;SDS011;1649;53.672;10.064;2023-09-08T04:29:57;13.10;;;9.07;;
3274;SDS011;1649;53.672;10.064;2023-09-08T04:32:24;13.00;;;8.97;;
3274;SDS011;1649;53.672;10.064;2023-09-08T04:34:49;11.60;;;8.40;;
3274;SDS011;1649;53.672;10.064;2023-09-08T04:37:15;14.60;;;9.47;;
3274;SDS011;1649;53.672;10.064;2023-09-08T04:39:41;13.77;;;9.40;;
3274;SDS011;1649;53.672;10.064;2023-09-08T04:42:06;13.10;;;9.07;;
3274;SDS011;1649;53.672;10.064;2023-09-08T04:44:32;13.30;;;9.47;;
3274;SDS011;1649;53.672;10.064;2023-09-08T04:46:57;13.30;;;9.63;;
3274;SDS011;1649;53.672;10.064;2023-09-08T04:49:23;11.90;;;9.13;;
3274;SDS011;1649;53.672;10.064;2023-09-08T04:51:48;13.30;;;9.80;;
3274;SDS011;1649;53.672;10.064;2023-09-08T04:54:14;12.47;;;9.57;;
3274;SDS011;1649;53.672;10.064;2023-09-08T04:56:39;12.73;;;9.53;;
3274;SDS011;1649;53.672;10.064;2023-09-08T04:59:05;12.53;;;9.60;;
3274;SDS011;1649;53.672;10.064;2023-09-08T05:01:31;12.43;;;9.90;;
3274;SDS011;1649;53.672;10.064;2023-09-08T05:03:57;13.57;;;9.60;;
3274;SDS011;1649;53.672;10.064;2023-09-08T05:06:26;14.90;;;9.60;;
3274;SDS011;1649;53.672;10.064;2023-09-08T05:08:51;13.53;;;10.03;;
3274;SDS011;1649;53.672;10.064;2023-09-08T05:11:17;12.70;;;9.97;;
3274;SDS011;1649;53.672;10.064;2023-09-08T05:13:44;14.00;;;10.93;;
3274;SDS011;1649;53.672;10.064;2023-09-08T05:16:09;13.70;;;10.50;;
3274;SDS011;1649;53.672;10.064;2023-09-08T05:18:38;14.70;;;11.53;;
3274;SDS011;1649;53.672;10.064;2023-09-08T05:21:05;14.70;;;10.40;;
3274;SDS011;1649;53.672;10.064;2023-09-08T05:23:31;14.17;;;10.50;;
3274;SDS011;1649;53.672;10.064;2023-09-08T05:25:56;14.90;;;10.77;;
3274;SDS011;1649;53.672;10.064;2023-09-08T05:28:22;17.40;;;10.27;;
3274;SDS011;1649;53.672;10.064;2023-09-08T05:30:50;14.03;;;12.00;;
3274;SDS011;1649;53.672;10.064;2023-09-08T05:33:16;15.50;;;12.43;;
3274;SDS011;1649;53.672;10.064;2023-09-08T05:35:42;16.10;;;12.73;;
3274;SDS011;1649;53.672;10.064;2023-09-08T05:38:07;16.87;;;11.37;;
3274;SDS011;1649;53.672;10.064;2023-09-08T05:40:34;14.90;;;11.40;;
3274;SDS011;1649;53.672;10.064;2023-09-08T05:42:59;16.60;;;12.83;;
3274;SDS011;1649;53.672;10.064;2023-09-08T05:45:25;15.93;;;12.33;;
3274;SDS011;1649;53.672;10.064;2023-09-08T05:47:51;17.87;;;13.30;;
3274;SDS011;1649;53.672;10.064;2023-09-08T05:50:17;15.83;;;12.73;;
3274;SDS011;1649;53.672;10.064;2023-09-08T05:52:42;15.13;;;12.03;;
3274;SDS011;1649;53.672;10.064;2023-09-08T05:55:08;17.30;;;13.10;;
3274;SDS011;1649;53.672;10.064;2023-09-08T05:57:34;14.20;;;11.87;;
3274;SDS011;1649;53.672;10.064;2023-09-08T05:59:59;16.33;;;11.60;;
3274;SDS011;1649;53.672;10.064;2023-09-08T06:02:25;14.37;;;11.50;;
3274;SDS011;1649;53.672;10.064;2023-09-08T06:04:51;14.47;;;11.87;;
3274;SDS011;1649;53.672;10.064;2023-09-08T06:07:16;15.03;;;11.90;;
3274;SDS011;1649;53.672;10.064;2023-09-08T06:09:42;17.70;;;12.30;;
3274;SDS011;1649;53.672;10.064;2023-09-08T06:12:07;16.30;;;12.37;;
3274;SDS011;1649;53.672;10.064;2023-09-08T06:14:33;14.50;;;12.10;;
3274;SDS011;1649;53.672;10.064;2023-09-08T06:16:58;15.03;;;12.43;;
3274;SDS011;1649;53.672;10.064;2023-09-08T06:19:23;16.20;;;12.10;;
3274;SDS011;1649;53.672;10.064;2023-09-08T06:21:49;13.77;;;11.40;;
3274;SDS011;1649;53.672;10.064;2023-09-08T06:24:14;12.30;;;10.20;;
3274;SDS011;1649;53.672;10.064;2023-09-08T06:26:40;13.23;;;9.80;;
3274;SDS011;1649;53.672;10.064;2023-09-08T06:29:07;11.07;;;9.53;;
3274;SDS011;1649;53.672;10.064;2023-09-08T06:31:32;12.10;;;9.67;;
3274;SDS011;1649;53.672;10.064;2023-09-08T06:33:58;10.70;;;8.67;;
3274;SDS011;1649;53.672;10.064;2023-09-08T06:36:23;10.90;;;9.07;;
3274;SDS011;1649;53.672;10.064;2023-09-08T06:38:48;10.30;;;8.53;;
3274;SDS011;1649;53.672;10.064;2023-09-08T06:41:14;11.00;;;8.43;;
3274;SDS011;1649;53.672;10.064;2023-09-08T06:43:39;8.50;;;7.47;;
3274;SDS011;1649;53.672;10.064;2023-09-08T06:46:05;9.40;;;7.50;;
3274;SDS011;1649;53.672;10.064;2023-09-08T06:48:31;12.30;;;8.40;;
3274;SDS011;1649;53.672;10.064;2023-09-08T06:50:56;11.23;;;8.10;;
3274;SDS011;1649;53.672;10.064;2023-09-08T06:53:22;11.43;;;8.20;;
3274;SDS011;1649;53.672;10.064;2023-09-08T06:55:48;9.80;;;8.80;;
3274;SDS011;1649;53.672;10.064;2023-09-08T06:58:13;9.10;;;8.00;;
3274;SDS011;1649;53.672;10.064;2023-09-08T07:00:42;11.20;;;8.97;;
3274;SDS011;1649;53.672;10.064;2023-09-08T07:03:07;13.70;;;9.20;;
3274;SDS011;1649;53.672;10.064;2023-09-08T07:05:37;11.10;;;9.30;;
3274;SDS011;1649;53.672;10.064;2023-09-08T07:08:04;14.23;;;9.23;;
3274;SDS011;1649;53.672;10.064;2023-09-08T07:10:31;12.97;;;9.87;;
3274;SDS011;1649;53.672;10.064;2023-09-08T07:12:56;12.80;;;10.30;;
3274;SDS011;1649;53.672;10.064;2023-09-08T07:15:22;13.87;;;9.83;;
3274;SDS011;1649;53.672;10.064;2023-09-08T07:17:47;12.43;;;10.80;;
3274;SDS011;1649;53.672;10.064;2023-09-08T07:20:13;15.17;;;10.43;;
3274;SDS011;1649;53.672;10.064;2023-09-08T07:22:38;14.47;;;10.30;;
3274;SDS011;1649;53.672;10.064;2023-09-08T07:25:04;19.70;;;11.20;;
3274;SDS011;1649;53.672;10.064;2023-09-08T07:27:30;14.87;;;11.53;;
3274;SDS011;1649;53.672;10.064;2023-09-08T07:29:56;15.17;;;10.30;;
3274;SDS011;1649;53.672;10.064;2023-09-08T07:32:21;14.60;;;10.03;;
3274;SDS011;1649;53.672;10.064;2023-09-08T07:34:48;14.57;;;10.33;;
3274;SDS011;1649;53.672;10.064;2023-09-08T07:37:19;14.10;;;11.27;;
3274;SDS011;1649;53.672;10.064;2023-09-08T07:39:49;12.97;;;10.67;;
3274;SDS011;1649;53.672;10.064;2023-09-08T07:42:15;16.60;;;10.87;;
3274;SDS011;1649;53.672;10.064;2023-09-08T07:44:41;14.37;;;10.07;;
3274;SDS011;1649;53.672;10.064;2023-09-08T07:47:06;12.53;;;9.10;;
3274;SDS011;1649;53.672;10.064;2023-09-08T07:49:35;14.30;;;9.60;;
3274;SDS011;1649;53.672;10.064;2023-09-08T07:52:01;10.80;;;9.00;;
3274;SDS011;1649;53.672;10.064;2023-09-08T07:54:26;15.90;;;9.17;;
3274;SDS011;1649;53.672;10.064;2023-09-08T07:56:52;11.93;;;8.80;;
3274;SDS011;1649;53.672;10.064;2023-09-08T07:59:17;12.30;;;8.43;;
3274;SDS011;1649;53.672;10.064;2023-09-08T08:01:43;11.23;;;9.03;;
3274;SDS011;1649;53.672;10.064;2023-09-08T08:04:08;8.73;;;7.50;;
3274;SDS011;1649;53.672;10.064;2023-09-08T08:06:34;10.90;;;8.77;;
3274;SDS011;1649;53.672;10.064;2023-09-08T08:08:59;9.83;;;7.87;;
3274;SDS011;1649;53.672;10.064;2023-09-08T08:11:25;10.30;;;8.50;;
3274;SDS011;1649;53.672;10.064;2023-09-08T08:13:51;13.17;;;9.23;;
3274;SDS011;1649;53.672;10.064;2023-09-08T08:16:16;10.20;;;8.57;;
3274;SDS011;1649;53.672;10.064;2023-09-08T08:18:42;12.53;;;8.83;;
3274;SDS011;1649;53.672;10.064;2023-09-08T08:21:08;13.57;;;9.60;;
3274;SDS011;1649;53.672;10.064;2023-09-08T08:23:34;14.20;;;9.27;;
3274;SDS011;1649;53.672;10.064;2023-09-08T08:26:00;10.90;;;8.60;;
3274;SDS011;1649;53.672;10.064;2023-09-08T08:28:25;12.93;;;8.70;;
3274;SDS011;1649;53.672;10.064;2023-09-08T08:30:51;9.60;;;7.50;;
3274;SDS011;1649;53.672;10.064;2023-09-08T08:33:17;9.50;;;8.00;;
3274;SDS011;1649;53.672;10.064;2023-09-08T08:35:49;10.40;;;7.90;;
3274;SDS011;1649;53.672;10.064;2023-09-08T08:38:15;8.80;;;7.60;;
3274;SDS011;1649;53.672;10.064;2023-09-08T08:40:40;9.90;;;7.37;;
3274;SDS011;1649;53.672;10.064;2023-09-08T08:43:07;9.77;;;7.40;;
3274;SDS011;1649;53.672;10.064;2023-09-08T08:45:33;9.60;;;7.00;;
3274;SDS011;1649;53.672;10.064;2023-09-08T08:48:00;9.77;;;7.47;;
3274;SDS011;1649;53.672;10.064;2023-09-08T08:50:27;10.60;;;6.60;;
3274;SDS011;1649;53.672;10.064;2023-09-08T08:52:54;7.80;;;6.87;;
3274;SDS011;1649;53.672;10.064;2023-09-08T08:55:20;7.97;;;6.93;;
3274;SDS011;1649;53.672;10.064;2023-09-08T08:57:45;9.80;;;6.97;;
3274;SDS011;1649;53.672;10.064;2023-09-08T09:00:11;8.20;;;6.80;;
3274;SDS011;1649;53.672;10.064;2023-09-08T09:02:41;8.30;;;6.63;;
3274;SDS011;1649;53.672;10.064;2023-09-08T09:05:11;10.67;;;6.83;;
3274;SDS011;1649;53.672;10.064;2023-09-08T09:07:38;8.50;;;7.00;;
3274;SDS011;1649;53.672;10.064;2023-09-08T09:10:05;8.10;;;6.70;;
3274;SDS011;1649;53.672;10.064;2023-09-08T09:12:32;8.80;;;6.93;;
3274;SDS011;1649;53.672;10.064;2023-09-08T09:14:58;10.13;;;6.40;;
3274;SDS011;1649;53.672;10.064;2023-09-08T09:17:29;9.87;;;7.00;;
3274;SDS011;1649;53.672;10.064;2023-09-08T09:22:40;8.33;;;6.50;;
3274;SDS011;1649;53.672;10.064;2023-09-08T09:25:06;7.90;;;6.60;;
3274;SDS011;1649;53.672;10.064;2023-09-08T09:27:32;12.33;;;7.00;;
3274;SDS011;1649;53.672;10.064;2023-09-08T09:30:04;8.77;;;6.93;;
3274;SDS011;1649;53.672;10.064;2023-09-08T09:32:30;9.73;;;6.50;;
3274;SDS011;1649;53.672;10.064;2023-09-08T09:34:56;8.00;;;6.80;;
3274;SDS011;1649;53.672;10.064;2023-09-08T09:37:22;7.63;;;6.83;;
3274;SDS011;1649;53.672;10.064;2023-09-08T09:39:51;8.40;;;7.33;;
3274;SDS011;1649;53.672;10.064;2023-09-08T09:42:19;10.53;;;7.10;;
3274;SDS011;1649;53.672;10.064;2023-09-08T09:44:48;9.33;;;6.83;;
3274;SDS011;1649;53.672;10.064;2023-09-08T09:47:16;9.00;;;7.10;;
3274;SDS011;1649;53.672;10.064;2023-09-08T09:49:42;9.23;;;7.10;;
3274;SDS011;1649;53.672;10.064;2023-09-08T09:52:09;7.80;;;7.00;;
3274;SDS011;1649;53.672;10.064;2023-09-08T09:54:38;10.80;;;6.50;;
3274;SDS011;1649;53.672;10.064;2023-09-08T09:57:06;8.40;;;6.80;;
3274;SDS011;1649;53.672;10.064;2023-09-08T09:59:32;7.97;;;6.60;;
3274;SDS011;1649;53.672;10.064;2023-09-08T10:01:58;8.20;;;6.77;;
3274;SDS011;1649;53.672;10.064;2023-09-08T10:04:24;7.80;;;6.20;;
3274;SDS011;1649;53.672;10.064;2023-09-08T10:06:51;8.10;;;6.77;;
3274;SDS011;1649;53.672;10.064;2023-09-08T10:09:18;7.50;;;6.20;;
3274;SDS011;1649;53.672;10.064;2023-09-08T10:11:48;8.80;;;6.63;;
3274;SDS011;1649;53.672;10.064;2023-09-08T10:14:17;8.97;;;6.70;;
3274;SDS011;1649;53.672;10.064;2023-09-08T10:16:44;10.00;;;6.40;;
3274;SDS011;1649;53.672;10.064;2023-09-08T10:19:14;7.83;;;6.33;;
3274;SDS011;1649;53.672;10.064;2023-09-08T10:21:42;8.00;;;6.30;;
3274;SDS011;1649;53.672;10.064;2023-09-08T10:24:23;9.73;;;6.77;;
3274;SDS011;1649;53.672;10.064;2023-09-08T10:26:51;9.53;;;6.80;;
3274;SDS011;1649;53.672;10.064;2023-09-08T10:29:34;7.70;;;6.30;;
3274;SDS011;1649;53.672;10.064;2023-09-08T10:32:00;9.03;;;6.23;;
3274;SDS011;1649;53.672;10.064;2023-09-08T10:34:27;7.60;;;6.33;;
3274;SDS011;1649;53.672;10.064;2023-09-08T10:36:54;9.90;;;6.70;;
3274;SDS011;1649;53.672;10.064;2023-09-08T10:39:32;9.40;;;6.40;;
3274;SDS011;1649;53.672;10.064;2023-09-08T10:42:19;11.00;;;7.03;;
3274;SDS011;1649;53.672;10.064;2023-09-08T10:44:59;7.53;;;6.10;;
3274;SDS011;1649;53.672;10.064;2023-09-08T10:47:32;9.20;;;6.87;;
3274;SDS011;1649;53.672;10.064;2023-09-08T10:50:16;8.63;;;6.90;;
3274;SDS011;1649;53.672;10.064;2023-09-08T10:52:43;7.70;;;6.47;;
3274;SDS011;1649;53.672;10.064;2023-09-08T10:55:08;7.90;;;6.40;;
3274;SDS011;1649;53.672;10.064;2023-09-08T10:57:36;9.27;;;6.43;;
3274;SDS011;1649;53.672;10.064;2023-09-08T11:00:02;8.23;;;6.37;;
3274;SDS011;1649;53.672;10.064;2023-09-08T11:02:49;9.40;;;7.37;;
3274;SDS011;1649;53.672;10.064;2023-09-08T11:05:19;8.70;;;6.30;;
3274;SDS011;1649;53.672;10.064;2023-09-08T11:07:47;10.07;;;7.23;;
3274;SDS011;1649;53.672;10.064;2023-09-08T11:10:17;7.87;;;6.50;;
3274;SDS011;1649;53.672;10.064;2023-09-08T11:12:43;7.80;;;6.37;;
3274;SDS011;1649;53.672;10.064;2023-09-08T11:15:08;8.40;;;7.03;;
3274;SDS011;1649;53.672;10.064;2023-09-08T11:17:35;12.57;;;6.70;;
3274;SDS011;1649;53.672;10.064;2023-09-08T11:20:04;8.67;;;6.30;;
3274;SDS011;1649;53.672;10.064;2023-09-08T11:22:33;7.47;;;6.53;;
3274;SDS011;1649;53.672;10.064;2023-09-08T11:25:00;8.03;;;7.00;;
3274;SDS011;1649;53.672;10.064;2023-09-08T11:27:29;9.13;;;7.00;;
3274;SDS011;1649;53.672;10.064;2023-09-08T11:29:56;10.03;;;5.80;;
3274;SDS011;1649;53.672;10.064;2023-09-08T11:32:24;8.40;;;6.20;;
3274;SDS011;1649;53.672;10.064;2023-09-08T11:35:00;7.13;;;6.00;;
3274;SDS011;1649;53.672;10.064;2023-09-08T11:37:29;9.37;;;5.80;;
3274;SDS011;1649;53.672;10.064;2023-09-08T11:39:55;8.10;;;5.57;;
3274;SDS011;1649;53.672;10.064;2023-09-08T11:42:20;8.10;;;6.00;;
3274;SDS011;1649;53.672;10.064;2023-09-08T11:44:46;8.70;;;5.70;;
3274;SDS011;1649;53.672;10.064;2023-09-08T11:47:12;7.50;;;5.50;;
3274;SDS011;1649;53.672;10.064;2023-09-08T11:49:40;9.63;;;5.47;;
3274;SDS011;1649;53.672;10.064;2023-09-08T11:52:07;7.60;;;5.47;;
3274;SDS011;1649;53.672;10.064;2023-09-08T11:54:33;6.83;;;5.27;;
3274;SDS011;1649;53.672;10.064;2023-09-08T11:57:00;8.40;;;6.10;;
3274;SDS011;1649;53.672;10.064;2023-09-08T11:59:34;8.67;;;5.90;;
3274;SDS011;1649;53.672;10.064;2023-09-08T12:02:00;8.17;;;5.70;;
3274;SDS011;1649;53.672;10.064;2023-09-08T12:04:26;7.90;;;5.60;;
3274;SDS011;1649;53.672;10.064;2023-09-08T12:06:52;7.30;;;5.23;;
3274;SDS011;1649;53.672;10.064;2023-09-08T12:09:20;8.97;;;5.97;;
3274;SDS011;1649;53.672;10.064;2023-09-08T12:11:46;10.10;;;5.67;;
3274;SDS011;1649;53.672;10.064;2023-09-08T12:14:13;7.93;;;6.07;;
3274;SDS011;1649;53.672;10.064;2023-09-08T12:16:40;9.43;;;5.63;;
3274;SDS011;1649;53.672;10.064;2023-09-08T12:19:06;9.73;;;5.80;;
3274;SDS011;1649;53.672;10.064;2023-09-08T12:21:34;8.07;;;5.40;;
3274;SDS011;1649;53.672;10.064;2023-09-08T12:24:18;10.43;;;6.73;;
3274;SDS011;1649;53.672;10.064;2023-09-08T12:26:43;7.80;;;5.73;;
3274;SDS011;1649;53.672;10.064;2023-09-08T12:29:12;11.60;;;5.50;;
3274;SDS011;1649;53.672;10.064;2023-09-08T12:31:38;9.77;;;5.43;;
3274;SDS011;1649;53.672;10.064;2023-09-08T12:34:03;11.50;;;5.90;;
3274;SDS011;1649;53.672;10.064;2023-09-08T12:36:29;7.87;;;5.60;;
3274;SDS011;1649;53.672;10.064;2023-09-08T12:38:54;8.13;;;6.10;;
3274;SDS011;1649;53.672;10.064;2023-09-08T12:41:20;9.37;;;6.40;;
3274;SDS011;1649;53.672;10.064;2023-09-08T12:43:46;6.70;;;5.43;;
3274;SDS011;1649;53.672;10.064;2023-09-08T12:46:11;8.87;;;6.43;;
3274;SDS011;1649;53.672;10.064;2023-09-08T12:48:37;7.37;;;5.90;;
3274;SDS011;1649;53.672;10.064;2023-09-08T12:51:03;7.97;;;6.13;;
3274;SDS011;1649;53.672;10.064;2023-09-08T12:53:33;10.57;;;6.10;;
3274;SDS011;1649;53.672;10.064;2023-09-08T12:56:00;7.97;;;6.30;;
3274;SDS011;1649;53.672;10.064;2023-09-08T12:58:25;8.53;;;5.90;;
3274;SDS011;1649;53.672;10.064;2023-09-08T13:00:52;7.10;;;5.57;;
3274;SDS011;1649;53.672;10.064;2023-09-08T13:03:18;9.87;;;6.20;;
3274;SDS011;1649;53.672;10.064;2023-09-08T13:05:43;9.63;;;5.70;;
3274;SDS011;1649;53.672;10.064;2023-09-08T13:08:09;8.30;;;6.40;;
3274;SDS011;1649;53.672;10.064;2023-09-08T13:10:36;7.63;;;5.80;;
3274;SDS011;1649;53.672;10.064;2023-09-08T13:13:02;8.10;;;6.03;;
3274;SDS011;1649;53.672;10.064;2023-09-08T13:15:28;8.40;;;6.13;;
3274;SDS011;1649;53.672;10.064;2023-09-08T13:17:54;7.53;;;6.00;;
3274;SDS011;1649;53.672;10.064;2023-09-08T13:20:20;8.40;;;6.17;;
3274;SDS011;1649;53.672;10.064;2023-09-08T13:22:45;8.00;;;6.30;;
3274;SDS011;1649;53.672;10.064;2023-09-08T13:25:11;7.53;;;5.90;;
3274;SDS011;1649;53.672;10.064;2023-09-08T13:27:36;8.83;;;6.40;;
3274;SDS011;1649;53.672;10.064;2023-09-08T13:30:08;7.20;;;5.57;;
3274;SDS011;1649;53.672;10.064;2023-09-08T13:32:38;6.97;;;5.43;;
3274;SDS011;1649;53.672;10.064;2023-09-08T13:35:04;8.63;;;5.63;;
3274;SDS011;1649;53.672;10.064;2023-09-08T13:37:30;8.43;;;5.60;;
3274;SDS011;1649;53.672;10.064;2023-09-08T13:39:56;10.33;;;5.80;;
3274;SDS011;1649;53.672;10.064;2023-09-08T13:42:22;7.43;;;5.20;;
3274;SDS011;1649;53.672;10.064;2023-09-08T13:44:47;8.57;;;5.70;;
3274;SDS011;1649;53.672;10.064;2023-09-08T13:47:13;6.67;;;5.27;;
3274;SDS011;1649;53.672;10.064;2023-09-08T13:49:38;7.70;;;5.53;;
3274;SDS011;1649;53.672;10.064;2023-09-08T13:52:04;7.10;;;5.40;;
3274;SDS011;1649;53.672;10.064;2023-09-08T13:54:30;8.40;;;5.00;;
3274;SDS011;1649;53.672;10.064;2023-09-08T13:56:57;6.87;;;5.00;;
3274;SDS011;1649;53.672;10.064;2023-09-08T13:59:25;7.20;;;5.70;;
3274;SDS011;1649;53.672;10.064;2023-09-08T14:01:51;7.97;;;5.23;;
3274;SDS011;1649;53.672;10.064;2023-09-08T14:04:18;7.70;;;5.10;;
3274;SDS011;1649;53.672;10.064;2023-09-08T14:06:44;7.40;;;5.10;;
3274;SDS011;1649;53.672;10.064;2023-09-08T14:09:10;7.17;;;5.30;;
3274;SDS011;1649;53.672;10.064;2023-09-08T14:11:35;7.63;;;5.33;;
3274;SDS011;1649;53.672;10.064;2023-09-08T14:14:01;6.40;;;4.70;;
3274;SDS011;1649;53.672;10.064;2023-09-08T14:16:26;8.03;;;5.17;;
3274;SDS011;1649;53.672;10.064;2023-09-08T14:18:52;8.93;;;5.03;;
3274;SDS011;1649;53.672;10.064;2023-09-08T14:21:17;6.50;;;5.00;;
3274;SDS011;1649;53.672;10.064;2023-09-08T14:23:43;7.40;;;5.00;;
3274;SDS011;1649;53.672;10.064;2023-09-08T14:26:08;8.40;;;5.70;;
3274;SDS011;1649;53.672;10.064;2023-09-08T14:28:34;7.53;;;4.70;;
3274;SDS011;1649;53.672;10.064;2023-09-08T14:30:59;7.63;;;5.13;;
3274;SDS011;1649;53.672;10.064;2023-09-08T14:33:25;7.73;;;5.13;;
3274;SDS011;1649;53.672;10.064;2023-09-08T14:35:51;8.00;;;5.57;;
3274;SDS011;1649;53.672;10.064;2023-09-08T14:38:23;7.83;;;5.10;;
3274;SDS011;1649;53.672;10.064;2023-09-08T14:40:55;8.67;;;5.83;;
3274;SDS011;1649;53.672;10.064;2023-09-08T14:43:22;7.27;;;5.27;;
3274;SDS011;1649;53.672;10.064;2023-09-08T14:45:48;7.00;;;5.10;;
3274;SDS011;1649;53.672;10.064;2023-09-08T14:48:13;7.30;;;5.23;;
3274;SDS011;1649;53.672;10.064;2023-09-08T14:50:39;8.97;;;4.93;;
3274;SDS011;1649;53.672;10.064;2023-09-08T14:53:04;6.87;;;4.87;;